createdAt,value
2022-09-25T00:00:45.823Z,99.99
2022-09-25T00:01:45.878Z,99.99
2022-09-25T00:02:45.912Z,99.99
2022-09-25T00:03:45.793Z,99.99
2022-09-25T00:04:45.861Z,99.99
2022-09-25T00:05:45.814Z,99.99
2022-09-25T00:06:45.760Z,99.99
2022-09-25T00:07:45.753Z,99.99
2022-09-25T00:08:45.738Z,99.99
2022-09-25T00:09:45.727Z,99.99
2022-09-25T00:10:45.830Z,99.99
2022-09-25T00:11:45.706Z,99.99
2022-09-25T00:12:45.695Z,99.99
2022-09-25T00:13:45.683Z,99.99
2022-09-25T00:14:45.671Z,99.99
2022-09-25T00:15:45.658Z,99.99
2022-09-25T00:16:45.779Z,99.99
2022-09-25T00:17:45.637Z,99.99
2022-09-25T00:18:45.632Z,99.99
2022-09-25T00:19:45.615Z,99.99
2022-09-25T00:20:45.608Z,99.99
2022-09-25T00:21:45.599Z,99.99
2022-09-25T00:22:45.701Z,99.99
2022-09-25T00:23:45.579Z,99.99
2022-09-25T00:24:45.562Z,99.99
2022-09-25T00:25:45.611Z,99.99
2022-09-25T00:26:45.651Z,99.99
2022-09-25T00:27:45.595Z,99.99
2022-09-25T00:28:45.586Z,99.99
2022-09-25T00:29:45.504Z,99.99
2022-09-25T00:30:45.536Z,99.99
2022-09-25T00:31:45.484Z,99.99
2022-09-25T00:32:45.490Z,99.99
2022-09-25T00:33:45.565Z,99.99
2022-09-25T00:34:45.450Z,99.99
2022-09-25T00:35:45.439Z,99.99
2022-09-25T00:36:45.433Z,99.99
2022-09-25T00:37:45.421Z,99.99
2022-09-25T00:38:45.409Z,99.99
2022-09-25T00:39:45.492Z,99.99
2022-09-25T00:40:45.492Z,99.99
2022-09-25T00:41:45.373Z,99.99
2022-09-25T00:42:45.389Z,99.99
2022-09-25T00:43:45.351Z,99.99
2022-09-25T00:44:45.343Z,99.99
2022-09-25T00:45:45.464Z,99.99
2022-09-25T00:46:45.330Z,99.99
2022-09-25T00:47:45.333Z,99.99
2022-09-25T00:48:45.303Z,99.99
2022-09-25T00:49:45.298Z,99.99
2022-09-25T00:50:45.276Z,99.99
2022-09-25T00:51:45.342Z,99.99
2022-09-25T00:52:45.250Z,99.99
2022-09-25T00:53:45.241Z,99.99
2022-09-25T00:54:45.231Z,99.99
2022-09-25T00:55:45.221Z,99.99
2022-09-25T00:56:45.313Z,99.99
2022-09-25T00:57:45.261Z,99.99
2022-09-25T00:58:45.208Z,99.99
2022-09-25T00:59:45.198Z,99.99
2022-09-25T01:00:45.164Z,99.99
2022-09-25T01:01:45.240Z,99.99
2022-09-25T01:02:45.258Z,99.99
2022-09-25T01:03:45.129Z,99.99
2022-09-25T01:04:45.181Z,99.99
2022-09-25T01:05:45.111Z,99.99
2022-09-25T01:06:45.105Z,99.99
2022-09-25T01:07:45.107Z,99.99
2022-09-25T01:08:45.078Z,99.99
2022-09-25T01:09:45.067Z,99.99
2022-09-25T01:10:45.151Z,99.99
2022-09-25T01:11:45.046Z,99.99
2022-09-25T01:12:45.140Z,99.99
2022-09-25T01:13:45.022Z,99.99
2022-09-25T01:14:45.040Z,99.99
2022-09-25T01:15:45.001Z,99.99
2022-09-25T01:16:45.055Z,99.99
2022-09-25T01:17:44.983Z,99.99
2022-09-25T01:18:44.983Z,99.99
2022-09-25T01:19:45.170Z,99.99
2022-09-25T01:20:44.946Z,99.99
2022-09-25T01:21:44.935Z,99.99
2022-09-25T01:22:44.980Z,99.99
2022-09-25T01:23:45.136Z,99.99
2022-09-25T01:24:44.904Z,99.99
2022-09-25T01:25:44.898Z,99.99
2022-09-25T01:26:44.894Z,99.99
2022-09-25T01:27:44.894Z,99.99
2022-09-25T01:28:44.877Z,99.99
2022-09-25T01:29:44.849Z,99.99
2022-09-25T01:30:44.890Z,99.99
2022-09-25T01:31:44.825Z,99.99
2022-09-25T01:32:44.825Z,99.99
2022-09-25T01:33:44.805Z,99.99
2022-09-25T01:34:44.863Z,99.99
2022-09-25T01:35:44.784Z,99.99
2022-09-25T01:36:44.773Z,99.99
2022-09-25T01:37:44.758Z,99.99
2022-09-25T01:38:44.855Z,99.99
2022-09-25T01:39:44.738Z,99.99
2022-09-25T01:40:44.773Z,99.99
2022-09-25T01:41:44.719Z,99.99
2022-09-25T01:42:44.705Z,99.99
2022-09-25T01:43:44.692Z,99.99
2022-09-25T01:44:44.694Z,99.99
2022-09-25T01:45:44.754Z,99.99
2022-09-25T01:46:44.720Z,99.99
2022-09-25T01:47:44.652Z,99.99
2022-09-25T01:48:44.639Z,99.99
2022-09-25T01:49:44.650Z,99.99
2022-09-25T01:50:44.628Z,99.99
2022-09-25T01:51:44.606Z,99.99
2022-09-25T01:52:44.641Z,99.99
2022-09-25T01:53:47.791Z,99.99
2022-09-25T01:54:44.586Z,99.99
2022-09-25T01:55:44.564Z,99.99
2022-09-25T01:56:44.609Z,99.99
2022-09-25T01:57:44.544Z,99.99
2022-09-25T01:58:44.542Z,99.99
2022-09-25T01:59:44.581Z,99.99
2022-09-25T02:00:44.507Z,99.99
2022-09-25T02:01:44.583Z,99.99
2022-09-25T02:02:44.569Z,99.99
2022-09-25T02:03:44.475Z,99.99
2022-09-25T02:04:44.692Z,99.99
2022-09-25T02:05:44.465Z,99.99
2022-09-25T02:06:44.440Z,99.99
2022-09-25T02:07:44.497Z,99.99
2022-09-25T02:08:44.425Z,99.99
2022-09-25T02:09:44.414Z,99.99
2022-09-25T02:10:44.413Z,99.99
2022-09-25T02:11:44.383Z,99.99
2022-09-25T02:12:44.388Z,99.99
2022-09-25T02:13:44.363Z,99.99
2022-09-25T02:14:44.391Z,99.99
2022-09-25T02:15:44.345Z,99.99
2022-09-25T02:16:44.464Z,99.99
2022-09-25T02:17:44.321Z,99.99
2022-09-25T02:18:44.348Z,99.99
2022-09-25T02:19:44.303Z,99.99
2022-09-25T02:20:44.332Z,99.99
2022-09-25T02:21:44.274Z,99.99
2022-09-25T02:22:44.277Z,99.99
2022-09-25T02:23:44.254Z,99.99
2022-09-25T02:24:44.243Z,99.99
2022-09-25T02:25:44.441Z,99.99
2022-09-25T02:26:44.226Z,99.99
2022-09-25T02:27:44.248Z,99.99
2022-09-25T02:28:44.214Z,99.99
2022-09-25T02:29:44.190Z,99.99
2022-09-25T02:30:44.279Z,99.99
2022-09-25T02:31:44.166Z,99.99
2022-09-25T02:32:44.153Z,99.99
2022-09-25T02:33:44.412Z,99.99
2022-09-25T02:34:44.172Z,99.99
2022-09-25T02:35:44.129Z,99.99
2022-09-25T02:36:44.112Z,99.99
2022-09-25T02:37:44.106Z,99.99
2022-09-25T02:38:44.088Z,99.99
2022-09-25T02:39:44.160Z,99.99
2022-09-25T02:40:44.145Z,99.99
2022-09-25T02:41:44.058Z,99.99
2022-09-25T02:42:44.045Z,99.99
2022-09-25T02:43:44.037Z,99.99
2022-09-25T02:44:44.023Z,99.99
2022-09-25T02:45:44.171Z,99.99
2022-09-25T02:46:43.998Z,99.99
2022-09-25T02:47:43.992Z,99.99
2022-09-25T02:48:43.998Z,99.99
2022-09-25T02:49:43.971Z,99.99
2022-09-25T02:50:43.981Z,99.99
2022-09-25T02:51:44.007Z,99.99
2022-09-25T02:52:43.942Z,99.99
2022-09-25T02:53:43.937Z,99.99
2022-09-25T02:54:43.916Z,99.99
2022-09-25T02:55:43.915Z,99.99
2022-09-25T02:56:43.890Z,99.99
2022-09-25T02:57:43.974Z,99.99
2022-09-25T02:58:43.870Z,99.99
2022-09-25T02:59:43.863Z,99.99
2022-09-25T03:00:43.851Z,99.99
2022-09-25T03:01:43.915Z,99.99
2022-09-25T03:02:48.132Z,99.99
2022-09-25T03:03:44.882Z,99.99
2022-09-25T03:04:43.803Z,99.99
2022-09-25T03:05:43.801Z,99.99
2022-09-25T03:06:43.820Z,99.99
2022-09-25T03:07:43.769Z,99.99
2022-09-25T03:08:43.770Z,99.99
2022-09-25T03:09:43.758Z,99.99
2022-09-25T03:10:43.739Z,99.99
2022-09-25T03:11:43.808Z,99.99
2022-09-25T03:12:43.732Z,99.99
2022-09-25T03:13:43.704Z,99.99
2022-09-25T03:14:43.698Z,99.99
2022-09-25T03:15:43.704Z,99.99
2022-09-25T03:16:43.722Z,99.99
2022-09-25T03:17:43.721Z,99.99
2022-09-25T03:18:43.665Z,99.99
2022-09-25T03:19:43.642Z,99.99
2022-09-25T03:20:43.640Z,99.99
2022-09-25T03:21:43.676Z,99.99
2022-09-25T03:22:43.634Z,99.99
2022-09-25T03:23:43.603Z,99.99
2022-09-25T03:24:43.596Z,99.99
2022-09-25T03:25:48.997Z,99.99
2022-09-25T03:26:44.564Z,99.99
2022-09-25T03:27:43.623Z,99.99
2022-09-25T03:28:43.542Z,99.99
2022-09-25T03:29:43.551Z,99.99
2022-09-25T03:30:43.567Z,99.99
2022-09-25T03:31:43.507Z,99.99
2022-09-25T03:32:43.501Z,99.99
2022-09-25T03:33:43.553Z,99.99
2022-09-25T03:34:43.491Z,99.99
2022-09-25T03:35:43.464Z,99.99
2022-09-25T03:36:43.452Z,99.99
2022-09-25T03:37:43.446Z,99.99
2022-09-25T03:38:43.456Z,99.99
2022-09-25T03:39:43.452Z,99.99
2022-09-25T03:40:43.545Z,99.99
2022-09-25T03:41:43.512Z,99.99
2022-09-25T03:42:43.389Z,99.99
2022-09-25T03:43:43.378Z,99.99
2022-09-25T03:44:43.378Z,99.99
2022-09-25T03:45:43.453Z,99.99
2022-09-25T03:46:43.348Z,99.99
2022-09-25T03:47:43.369Z,99.99
2022-09-25T03:48:43.338Z,99.99
2022-09-25T03:49:43.332Z,99.99
2022-09-25T03:50:43.300Z,99.99
2022-09-25T03:51:43.387Z,99.99
2022-09-25T03:52:43.293Z,99.99
2022-09-25T03:53:43.267Z,99.99
2022-09-25T03:54:43.287Z,99.99
2022-09-25T03:55:43.245Z,99.99
2022-09-25T03:56:43.248Z,99.99
2022-09-25T03:57:43.273Z,99.99
2022-09-25T03:58:43.213Z,99.99
2022-09-25T03:59:43.209Z,99.99
2022-09-25T04:00:43.189Z,99.99
2022-09-25T04:01:43.220Z,99.99
2022-09-25T04:02:43.277Z,99.99
2022-09-25T04:03:43.225Z,99.99
2022-09-25T04:04:43.148Z,99.99
2022-09-25T04:05:43.196Z,99.99
2022-09-25T04:06:43.124Z,99.99
2022-09-25T04:07:43.112Z,99.99
2022-09-25T04:08:43.224Z,99.99
2022-09-25T04:09:43.116Z,99.99
2022-09-25T04:10:43.119Z,99.99
2022-09-25T04:11:43.075Z,99.99
2022-09-25T04:12:43.056Z,99.99
2022-09-25T04:13:43.045Z,99.99
2022-09-25T04:14:43.052Z,99.99
2022-09-25T04:15:43.025Z,99.99
2022-09-25T04:16:43.179Z,99.99
2022-09-25T04:17:43.001Z,99.99
2022-09-25T04:18:43.206Z,99.99
2022-09-25T04:19:42.982Z,99.99
2022-09-25T04:20:42.990Z,99.99
2022-09-25T04:21:42.956Z,99.99
2022-09-25T04:22:43.028Z,99.99
2022-09-25T04:23:42.937Z,99.99
2022-09-25T04:24:42.926Z,99.99
2022-09-25T04:25:42.914Z,99.99
2022-09-25T04:26:43.113Z,99.99
2022-09-25T04:27:42.892Z,99.99
2022-09-25T04:28:42.955Z,99.99
2022-09-25T04:29:42.868Z,99.99
2022-09-25T04:30:42.868Z,99.99
2022-09-25T04:31:42.881Z,99.99
2022-09-25T04:32:42.849Z,99.99
2022-09-25T04:33:42.824Z,99.99
2022-09-25T04:34:42.896Z,99.99
2022-09-25T04:35:42.807Z,99.99
2022-09-25T04:36:43.007Z,99.99
2022-09-25T04:37:42.784Z,99.99
2022-09-25T04:38:42.784Z,99.99
2022-09-25T04:39:42.776Z,99.99
2022-09-25T04:40:42.908Z,99.99
2022-09-25T04:41:42.748Z,99.99
2022-09-25T04:42:42.840Z,99.99
2022-09-25T04:43:42.734Z,99.99
2022-09-25T04:44:42.746Z,99.99
2022-09-25T04:45:42.858Z,99.99
2022-09-25T04:46:42.772Z,99.99
2022-09-25T04:47:42.677Z,99.99
2022-09-25T04:48:42.664Z,99.99
2022-09-25T04:49:42.651Z,99.99
2022-09-25T04:50:42.660Z,99.99
2022-09-25T04:51:42.685Z,99.99
2022-09-25T04:52:42.626Z,99.99
2022-09-25T04:53:42.608Z,99.99
2022-09-25T04:54:42.598Z,99.99
2022-09-25T04:55:42.589Z,99.99
2022-09-25T04:56:42.589Z,99.99
2022-09-25T04:57:57.819Z,99.99
2022-09-25T04:58:43.632Z,99.99
2022-09-25T04:59:42.562Z,99.99
2022-09-25T05:00:42.530Z,99.99
2022-09-25T05:01:42.707Z,99.99
2022-09-25T05:02:42.685Z,99.99
2022-09-25T05:03:42.614Z,99.99
2022-09-25T05:04:43.271Z,99.99
2022-09-25T05:05:42.477Z,99.99
2022-09-25T05:06:42.478Z,99.99
2022-09-25T05:07:42.452Z,99.99
2022-09-25T05:08:42.442Z,99.99
2022-09-25T05:09:42.437Z,99.99
2022-09-25T05:10:42.518Z,99.99
2022-09-25T05:11:42.419Z,99.99
2022-09-25T05:12:42.399Z,99.99
2022-09-25T05:13:42.462Z,99.99
2022-09-25T05:14:42.403Z,99.99
2022-09-25T05:15:42.366Z,99.99
2022-09-25T05:16:42.452Z,99.99
2022-09-25T05:17:42.344Z,99.99
2022-09-25T05:18:42.431Z,99.99
2022-09-25T05:19:42.321Z,99.99
2022-09-25T05:20:42.314Z,99.99
2022-09-25T05:21:42.304Z,99.99
2022-09-25T05:22:42.354Z,99.99
2022-09-25T05:23:42.276Z,99.99
2022-09-25T05:24:42.386Z,99.99
2022-09-25T05:25:42.255Z,99.99
2022-09-25T05:26:42.257Z,99.99
2022-09-25T05:27:42.234Z,99.99
2022-09-25T05:28:42.226Z,99.99
2022-09-25T05:29:42.265Z,99.99
2022-09-25T05:30:42.235Z,99.99
2022-09-25T05:31:42.302Z,99.99
2022-09-25T05:32:42.218Z,99.99
2022-09-25T05:33:42.173Z,99.99
2022-09-25T05:34:42.157Z,99.99
2022-09-25T05:35:42.217Z,99.99
2022-09-25T05:36:42.132Z,99.99
2022-09-25T05:37:42.126Z,99.99
2022-09-25T05:38:42.126Z,99.99
2022-09-25T05:39:42.106Z,99.99
2022-09-25T05:40:42.182Z,99.99
2022-09-25T05:41:42.167Z,99.99
2022-09-25T05:42:42.071Z,99.99
2022-09-25T05:43:42.056Z,99.99
2022-09-25T05:44:42.082Z,99.99
2022-09-25T05:45:42.056Z,99.99
2022-09-25T05:46:42.110Z,99.99
2022-09-25T05:47:42.109Z,99.99
2022-09-25T05:48:42.026Z,99.99
2022-09-25T05:49:42.014Z,99.99
2022-09-25T05:50:41.988Z,99.99
2022-09-25T05:51:41.973Z,99.99
2022-09-25T05:52:41.955Z,99.99
2022-09-25T05:53:42.010Z,99.99
2022-09-25T05:54:41.940Z,99.99
2022-09-25T05:55:41.934Z,99.99
2022-09-25T05:56:41.913Z,99.99
2022-09-25T05:57:41.900Z,99.99
2022-09-25T05:58:41.895Z,99.99
2022-09-25T05:59:41.883Z,99.99
2022-09-25T06:00:41.941Z,99.99
2022-09-25T06:01:41.930Z,99.99
2022-09-25T06:02:42.045Z,99.99
2022-09-25T06:03:41.840Z,99.99
2022-09-25T06:04:41.823Z,99.99
2022-09-25T06:05:41.815Z,99.99
2022-09-25T06:06:41.876Z,99.99
2022-09-25T06:07:41.803Z,99.99
2022-09-25T06:08:41.782Z,99.99
2022-09-25T06:09:41.771Z,99.99
2022-09-25T06:10:41.763Z,99.99
2022-09-25T06:11:41.750Z,99.99
2022-09-25T06:12:41.814Z,99.99
2022-09-25T06:13:41.810Z,99.99
2022-09-25T06:14:41.713Z,99.99
2022-09-25T06:15:41.895Z,99.99
2022-09-25T06:16:41.691Z,99.99
2022-09-25T06:17:41.681Z,99.99
2022-09-25T06:18:41.725Z,99.99
2022-09-25T06:19:41.671Z,99.99
2022-09-25T06:20:41.645Z,99.99
2022-09-25T06:21:41.636Z,99.99
2022-09-25T06:22:41.628Z,99.99
2022-09-25T06:23:41.656Z,99.99
2022-09-25T06:24:41.690Z,99.99
2022-09-25T06:25:41.592Z,99.99
2022-09-25T06:26:41.586Z,99.99
2022-09-25T06:27:41.572Z,99.99
2022-09-25T06:28:41.567Z,99.99
2022-09-25T06:29:41.547Z,99.99
2022-09-25T06:30:41.561Z,99.99
2022-09-25T06:31:41.634Z,99.99
2022-09-25T06:32:41.518Z,99.99
2022-09-25T06:33:41.548Z,99.99
2022-09-25T06:34:41.528Z,99.99
2022-09-25T06:35:41.498Z,99.99
2022-09-25T06:36:41.517Z,99.99
2022-09-25T06:37:41.469Z,99.99
2022-09-25T06:38:41.564Z,99.99
2022-09-25T06:39:41.438Z,99.99
2022-09-25T06:40:41.969Z,99.99
2022-09-25T06:41:41.462Z,99.99
2022-09-25T06:42:41.414Z,99.99
2022-09-25T06:43:41.395Z,99.99
2022-09-25T06:44:41.407Z,99.99
2022-09-25T06:45:41.379Z,99.99
2022-09-25T06:46:41.469Z,99.99
2022-09-25T06:47:41.413Z,99.99
2022-09-25T06:48:41.341Z,99.99
2022-09-25T06:49:41.327Z,99.99
2022-09-25T06:50:41.366Z,99.99
2022-09-25T06:51:41.308Z,99.99
2022-09-25T06:52:41.299Z,99.99
2022-09-25T06:53:41.385Z,99.99
2022-09-25T06:54:44.228Z,99.99
2022-09-25T06:55:41.266Z,99.99
2022-09-25T06:56:41.261Z,99.99
2022-09-25T06:57:41.239Z,99.99
2022-09-25T06:58:41.231Z,99.99
2022-09-25T06:59:41.266Z,99.99
2022-09-25T07:00:41.206Z,99.99
2022-09-25T07:01:41.287Z,99.99
2022-09-25T07:02:41.258Z,99.99
2022-09-25T07:03:41.171Z,99.99
2022-09-25T07:04:41.163Z,99.99
2022-09-25T07:05:41.202Z,99.99
2022-09-25T07:06:41.174Z,99.99
2022-09-25T07:07:41.137Z,99.99
2022-09-25T07:08:41.117Z,99.99
2022-09-25T07:09:41.105Z,99.99
2022-09-25T07:10:45.599Z,99.99
2022-09-25T07:11:41.153Z,99.99
2022-09-25T07:12:41.069Z,99.99
2022-09-25T07:13:41.061Z,99.99
2022-09-25T07:14:41.050Z,99.99
2022-09-25T07:15:41.098Z,99.99
2022-09-25T07:16:41.036Z,99.16
2022-09-25T07:17:41.086Z,99.98
2022-09-25T07:18:41.012Z,99.42
2022-09-25T07:19:41.001Z,99.99
2022-09-25T07:20:40.983Z,99.99
2022-09-25T07:21:40.976Z,99.67
2022-09-25T07:22:40.997Z,99.73
2022-09-25T07:23:41.016Z,99.77
2022-09-25T07:24:40.941Z,99.16
2022-09-25T07:25:40.930Z,99.67
2022-09-25T07:26:43.192Z,99.52
2022-09-25T07:27:40.910Z,99.01
2022-09-25T07:28:40.965Z,96.55
2022-09-25T07:29:40.997Z,96.85
2022-09-25T07:30:41.015Z,98.76
2022-09-25T07:31:40.996Z,99.99
2022-09-25T07:32:40.858Z,99.99
2022-09-25T07:33:40.850Z,99.99
2022-09-25T07:34:40.847Z,99.99
2022-09-25T07:35:40.830Z,99.99
2022-09-25T07:36:40.861Z,99.99
2022-09-25T07:37:40.805Z,99.99
2022-09-25T07:38:40.822Z,99.99
2022-09-25T07:39:40.880Z,99.99
2022-09-25T07:40:40.811Z,99.99
2022-09-25T07:41:40.755Z,99.52
2022-09-25T07:42:40.803Z,99.63
2022-09-25T07:43:40.779Z,99.99
2022-09-25T07:44:44.671Z,99.99
2022-09-25T07:45:41.721Z,99.99
2022-09-25T07:46:40.748Z,99.99
2022-09-25T07:47:40.689Z,99.63
2022-09-25T07:48:40.763Z,97.89
2022-09-25T07:49:40.665Z,99.99
2022-09-25T07:50:40.652Z,99.99
2022-09-25T07:51:40.644Z,99.99
2022-09-25T07:52:40.633Z,99.51
2022-09-25T07:53:40.627Z,96.84
2022-09-25T07:54:40.681Z,97.66
2022-09-25T07:55:40.596Z,96.54
2022-09-25T07:56:40.586Z,97.61
2022-09-25T07:57:40.597Z,98.43
2022-09-25T07:58:40.562Z,94.68
2022-09-25T07:59:40.558Z,96.42
2022-09-25T08:00:40.621Z,96.83
2022-09-25T08:01:44.189Z,97.34
2022-09-25T08:02:41.567Z,97.04
2022-09-25T08:03:40.511Z,98.21
2022-09-25T08:04:40.510Z,98.83
2022-09-25T08:05:40.516Z,99.50
2022-09-25T08:06:40.481Z,98.74
2022-09-25T08:07:40.466Z,98.03
2022-09-25T08:08:40.480Z,97.94
2022-09-25T08:09:40.540Z,94.77
2022-09-25T08:10:40.543Z,93.99
2022-09-25T08:11:40.423Z,94.42
2022-09-25T08:12:40.461Z,90.51
2022-09-25T08:13:40.403Z,91.89
2022-09-25T08:14:40.404Z,91.09
2022-09-25T08:15:40.469Z,86.76
2022-09-25T08:16:40.462Z,87.43
2022-09-25T08:17:40.363Z,88.71
2022-09-25T08:18:40.362Z,85.14
2022-09-25T08:19:40.346Z,86.13
2022-09-25T08:20:40.328Z,83.86
2022-09-25T08:21:40.385Z,88.00
2022-09-25T08:22:40.316Z,85.72
2022-09-25T08:23:42.900Z,87.75
2022-09-25T08:24:41.279Z,87.65
2022-09-25T08:25:40.283Z,86.29
2022-09-25T08:26:40.285Z,87.96
2022-09-25T08:27:40.301Z,89.87
2022-09-25T08:28:40.237Z,89.16
2022-09-25T08:29:40.242Z,88.55
2022-09-25T08:30:40.291Z,87.84
2022-09-25T08:31:40.247Z,88.81
2022-09-25T08:32:40.195Z,88.53
2022-09-25T08:33:40.246Z,87.77
2022-09-25T08:34:41.653Z,84.99
2022-09-25T08:35:40.156Z,85.60
2022-09-25T08:36:40.151Z,83.97
2022-09-25T08:37:40.144Z,82.85
2022-09-25T08:38:40.215Z,81.70
2022-09-25T08:39:40.113Z,82.73
2022-09-25T08:40:44.431Z,84.09
2022-09-25T08:41:41.093Z,86.02
2022-09-25T08:42:40.105Z,90.00
2022-09-25T08:43:40.074Z,91.74
2022-09-25T08:44:40.086Z,89.79
2022-09-25T08:45:40.054Z,89.00
2022-09-25T08:46:40.090Z,88.49
2022-09-25T08:47:40.029Z,89.92
2022-09-25T08:48:40.026Z,89.61
2022-09-25T08:49:40.017Z,90.53
2022-09-25T08:50:40.198Z,89.25
2022-09-25T08:51:39.982Z,89.96
2022-09-25T08:52:39.973Z,89.86
2022-09-25T08:53:39.964Z,89.71
2022-09-25T08:54:42.143Z,87.61
2022-09-25T08:55:40.951Z,85.80
2022-09-25T08:56:39.950Z,86.21
2022-09-25T08:57:39.919Z,88.49
2022-09-25T08:58:39.935Z,86.94
2022-09-25T08:59:39.906Z,87.84
2022-09-25T09:00:39.899Z,87.92
2022-09-25T09:01:39.985Z,87.26
2022-09-25T09:02:39.999Z,88.45
2022-09-25T09:03:39.863Z,86.15
2022-09-25T09:04:39.851Z,88.96
2022-09-25T09:05:39.831Z,89.99
2022-09-25T09:06:39.839Z,83.84
2022-09-25T09:07:39.813Z,84.92
2022-09-25T09:08:39.873Z,86.41
2022-09-25T09:09:39.795Z,83.15
2022-09-25T09:10:39.777Z,82.42
2022-09-25T09:11:39.769Z,84.21
2022-09-25T09:12:39.777Z,82.12
2022-09-25T09:13:39.740Z,82.12
2022-09-25T09:14:39.762Z,83.46
2022-09-25T09:15:40.104Z,85.66
2022-09-25T09:16:39.715Z,81.92
2022-09-25T09:17:39.700Z,80.13
2022-09-25T09:18:39.691Z,78.75
2022-09-25T09:19:39.679Z,85.07
2022-09-25T09:20:39.726Z,83.26
2022-09-25T09:21:39.658Z,83.87
2022-09-25T09:22:39.645Z,88.04
2022-09-25T09:23:39.633Z,83.74
2022-09-25T09:24:39.622Z,84.86
2022-09-25T09:25:39.609Z,84.86
2022-09-25T09:26:39.674Z,86.13
2022-09-25T09:27:39.603Z,84.43
2022-09-25T09:28:39.580Z,83.15
2022-09-25T09:29:39.614Z,85.74
2022-09-25T09:30:39.642Z,86.15
2022-09-25T09:31:39.547Z,86.43
2022-09-25T09:32:39.586Z,86.16
2022-09-25T09:33:39.524Z,88.31
2022-09-25T09:35:04.033Z,88.51
2022-09-25T09:35:40.503Z,88.82
2022-09-25T09:36:39.494Z,88.82
2022-09-25T09:37:39.536Z,88.88
2022-09-25T09:38:39.484Z,88.57
2022-09-25T09:39:39.463Z,88.47
2022-09-25T09:40:39.549Z,88.41
2022-09-25T09:41:39.441Z,88.17
2022-09-25T09:42:39.434Z,86.51
2022-09-25T09:43:39.538Z,88.10
2022-09-25T09:44:39.405Z,88.31
2022-09-25T09:45:39.397Z,87.76
2022-09-25T09:46:39.633Z,88.22
2022-09-25T09:47:39.409Z,86.21
2022-09-25T09:48:39.379Z,86.51
2022-09-25T09:49:39.427Z,88.65
2022-09-25T09:50:42.873Z,88.18
2022-09-25T09:51:39.332Z,87.63
2022-09-25T09:52:39.315Z,85.13
2022-09-25T09:53:39.312Z,83.12
2022-09-25T09:54:39.390Z,82.00
2022-09-25T09:55:39.285Z,84.14
2022-09-25T09:56:39.271Z,87.71
2022-09-25T09:57:39.265Z,86.55
2022-09-25T09:58:39.253Z,84.20
2022-09-25T09:59:39.249Z,86.00
2022-09-25T10:00:39.276Z,85.57
2022-09-25T10:01:42.037Z,85.47
2022-09-25T10:02:39.393Z,85.19
2022-09-25T10:03:39.199Z,85.28
2022-09-25T10:04:39.190Z,82.78
2022-09-25T10:05:39.182Z,85.84
2022-09-25T10:06:39.211Z,84.20
2022-09-25T10:07:39.154Z,86.65
2022-09-25T10:08:39.356Z,86.55
2022-09-25T10:09:39.135Z,87.63
2022-09-25T10:10:39.136Z,85.08
2022-09-25T10:11:39.115Z,84.41
2022-09-25T10:12:39.165Z,84.11
2022-09-25T10:13:39.087Z,86.15
2022-09-25T10:14:39.079Z,86.04
2022-09-25T10:15:39.117Z,85.33
2022-09-25T10:16:39.068Z,87.71
2022-09-25T10:17:39.040Z,85.47
2022-09-25T10:18:39.061Z,85.37
2022-09-25T10:19:39.028Z,84.04
2022-09-25T10:20:39.014Z,85.57
2022-09-25T10:21:39.000Z,87.82
2022-09-25T10:22:39.006Z,86.02
2022-09-25T10:23:38.978Z,86.94
2022-09-25T10:24:39.030Z,87.85
2022-09-25T10:25:38.961Z,88.10
2022-09-25T10:26:38.966Z,89.73
2022-09-25T10:27:38.935Z,89.69
2022-09-25T10:28:38.945Z,89.02
2022-09-25T10:29:38.914Z,89.63
2022-09-25T10:30:38.922Z,89.90
2022-09-25T10:31:38.984Z,88.98
2022-09-25T10:32:38.883Z,89.49
2022-09-25T10:33:38.867Z,89.90
2022-09-25T10:34:38.879Z,90.06
2022-09-25T10:35:38.867Z,90.41
2022-09-25T10:36:38.837Z,89.28
2022-09-25T10:37:38.897Z,89.94
2022-09-25T10:38:38.823Z,89.23
2022-09-25T10:39:44.654Z,90.29
2022-09-25T10:40:39.855Z,89.88
2022-09-25T10:41:38.798Z,89.94
2022-09-25T10:42:38.775Z,89.72
2022-09-25T10:43:38.831Z,89.86
2022-09-25T10:44:38.751Z,90.17
2022-09-25T10:45:38.752Z,90.47
2022-09-25T10:46:38.857Z,89.86
2022-09-25T10:47:38.721Z,90.47
2022-09-25T10:48:38.707Z,92.72
2022-09-25T10:49:38.710Z,89.35
2022-09-25T10:50:38.794Z,89.15
2022-09-25T10:51:38.678Z,90.27
2022-09-25T10:52:38.669Z,90.31
2022-09-25T10:53:38.652Z,89.45
2022-09-25T10:54:44.396Z,89.86
2022-09-25T10:55:39.690Z,90.06
2022-09-25T10:56:38.635Z,89.15
2022-09-25T10:57:38.738Z,90.17
2022-09-25T10:58:38.605Z,89.65
2022-09-25T10:59:38.615Z,90.37
2022-09-25T11:00:38.572Z,88.90
2022-09-25T11:01:38.825Z,89.56
2022-09-25T11:02:38.609Z,89.76
2022-09-25T11:03:38.539Z,89.20
2022-09-25T11:04:38.544Z,90.64
2022-09-25T11:05:38.548Z,90.08
2022-09-25T11:06:38.531Z,90.35
2022-09-25T11:07:38.507Z,90.14
2022-09-25T11:08:38.496Z,89.43
2022-09-25T11:09:38.497Z,89.17
2022-09-25T11:10:38.466Z,89.02
2022-09-25T11:11:38.470Z,88.92
2022-09-25T11:12:38.511Z,89.94
2022-09-25T11:13:38.434Z,89.53
2022-09-25T11:14:38.436Z,89.32
2022-09-25T11:15:38.409Z,90.31
2022-09-25T11:16:38.458Z,89.32
2022-09-25T11:17:38.390Z,89.73
2022-09-25T11:18:38.451Z,90.39
2022-09-25T11:19:38.359Z,90.08
2022-09-25T11:20:38.376Z,91.37
2022-09-25T11:21:38.341Z,90.29
2022-09-25T11:22:38.357Z,91.20
2022-09-25T11:23:38.331Z,91.52
2022-09-25T11:24:38.369Z,92.17
2022-09-25T11:25:38.297Z,92.58
2022-09-25T11:26:38.299Z,92.27
2022-09-25T11:27:38.331Z,92.68
2022-09-25T11:28:38.272Z,93.15
2022-09-25T11:29:38.253Z,92.02
2022-09-25T11:30:38.350Z,92.17
2022-09-25T11:31:38.232Z,89.78
2022-09-25T11:32:38.228Z,91.11
2022-09-25T11:33:38.222Z,91.92
2022-09-25T11:34:38.209Z,89.63
2022-09-25T11:35:38.186Z,88.92
2022-09-25T11:36:38.233Z,90.14
2022-09-25T11:37:38.169Z,88.96
2022-09-25T11:38:38.180Z,89.47
2022-09-25T11:39:38.150Z,89.37
2022-09-25T11:40:38.225Z,90.45
2022-09-25T11:41:38.126Z,88.85
2022-09-25T11:42:38.111Z,87.98
2022-09-25T11:43:38.104Z,89.20
2022-09-25T11:44:38.087Z,91.41
2022-09-25T11:45:38.090Z,88.76
2022-09-25T11:46:38.066Z,89.67
2022-09-25T11:47:38.063Z,89.02
2022-09-25T11:48:38.101Z,89.23
2022-09-25T11:49:38.036Z,89.32
2022-09-25T11:50:38.020Z,88.61
2022-09-25T11:51:38.024Z,87.29
2022-09-25T11:52:38.000Z,87.94
2022-09-25T11:53:37.992Z,88.82
2022-09-25T11:54:38.378Z,87.18
2022-09-25T11:55:42.778Z,85.30
2022-09-25T11:56:38.970Z,84.33
2022-09-25T11:57:37.944Z,85.38
2022-09-25T11:58:37.991Z,84.01
2022-09-25T11:59:37.922Z,85.24
2022-09-25T12:00:37.964Z,83.16
2022-09-25T12:01:38.110Z,83.47
2022-09-25T12:02:37.972Z,84.49
2022-09-25T12:03:37.880Z,84.39
2022-09-25T12:04:41.329Z,85.27
2022-09-25T12:05:37.863Z,80.16
2022-09-25T12:06:37.933Z,83.70
2022-09-25T12:07:37.906Z,83.39
2022-09-25T12:08:37.831Z,82.41
2022-09-25T12:09:37.818Z,82.21
2022-09-25T12:10:37.878Z,83.59
2022-09-25T12:11:37.881Z,84.51
2022-09-25T12:12:37.803Z,82.88
2022-09-25T12:13:37.785Z,81.76
2022-09-25T12:14:37.764Z,81.80
2022-09-25T12:15:37.748Z,82.10
2022-09-25T12:16:37.870Z,81.18
2022-09-25T12:17:37.766Z,81.53
2022-09-25T12:18:37.730Z,82.96
2022-09-25T12:19:37.713Z,82.75
2022-09-25T12:20:37.750Z,82.89
2022-09-25T12:21:37.683Z,84.12
2022-09-25T12:22:37.689Z,84.83
2022-09-25T12:23:37.659Z,83.26
2022-09-25T12:24:37.652Z,83.26
2022-09-25T12:25:37.647Z,85.71
2022-09-25T12:26:37.667Z,88.26
2022-09-25T12:27:37.670Z,86.39
2022-09-25T12:28:37.604Z,83.67
2022-09-25T12:29:37.611Z,85.06
2022-09-25T12:30:37.664Z,86.02
2022-09-25T12:31:37.578Z,86.12
2022-09-25T12:32:37.565Z,86.08
2022-09-25T12:33:37.564Z,85.71
2022-09-25T12:34:37.560Z,87.55
2022-09-25T12:35:37.532Z,87.20
2022-09-25T12:36:37.523Z,85.88
2022-09-25T12:37:37.623Z,85.98
2022-09-25T12:38:37.526Z,87.30
2022-09-25T12:39:37.494Z,86.24
2022-09-25T12:40:37.537Z,85.84
2022-09-25T12:41:37.463Z,84.00
2022-09-25T12:42:37.478Z,85.84
2022-09-25T12:43:37.549Z,85.53
2022-09-25T12:44:37.440Z,86.51
2022-09-25T12:45:37.461Z,85.08
2022-09-25T12:46:37.477Z,85.96
2022-09-25T12:47:37.410Z,84.33
2022-09-25T12:48:37.392Z,86.74
2022-09-25T12:49:37.655Z,85.31
2022-09-25T12:50:37.369Z,85.92
2022-09-25T12:51:37.358Z,82.66
2022-09-25T12:52:37.342Z,84.09